Seattle, Washington
Traffic Map
Current Weather Conditions
Seattle, Washington
Clear
Clear
67°
Feels Like: 67°
Wind Chill: 67° Ceiling: Unl
Heat Index: 67° Visibility: 10mi
Dew Point: 55° Wind: 3mph
Humidity: 66% Direction: 300° (WNW)
Pressure: 29.9in Gusts: 0mph
Raw Report DataKBFI 210353Z 30003KT 10SM CLR 19/13 A2990 RMK AO2 SLP123 T01940128
Traffic Incident Summary
Active as of:
Severity:
Category:
InformationThere was an issue retrieving the traffic information for this location. Please try a different location or try again shortly.
Advertisements
Track Severe Weather on mobile